Puffy — 9HA2011 — position and weather

sailwx.info

Track history (hours):
 
Tides and Currents Weather Stations Pressure Air Temp Water Temp Dewpoint Dewpoint Depression Visibility Wind Speed Wind Dir Waves Ship Positions

Puffy

Last reported at 2018-Jun-21 16:06 UTC. Time now 2018-Jun-22 01:59 UTC.
Position N 44°28' E 012°15'.

Length 140 m; draft 7.8 m.

Type: Cargo ship. MMSI: 249801000.

Date/timePositionNaut miles runAvg speedWind from/ knotsBaromVisibWave heightAir tempDewpointWater temp
2018-Jun-21 16:06N 44°28' E 012°15'0 0.0
2018-Jun-21 16:00N 44°28' E 012°15'0 0.0
2018-Jun-21 15:30N 44°28' E 012°15'0 0.0
2018-Jun-21 14:24N 44°28' E 012°15'0 0.0
2018-Jun-21 12:48N 44°28' E 012°15'0 0.0
2018-Jun-21 05:39N 44°28' E 012°15'9 4.4
2018-Jun-21 03:31N 44°30' E 012°28'0 1.1
2018-Jun-21 03:17N 44°30' E 012°29'7 6.5
2018-Jun-21 02:12N 44°30' E 012°38'4 8.1
2018-Jun-21 01:43N 44°30' E 012°44'2 7.9
2018-Jun-21 01:29N 44°30' E 012°47'5 7.6
2018-Jun-21 00:48N 44°28' E 012°53'3 8.3
2018-Jun-21 00:23N 44°26' E 012°57'4 8.2
2018-Jun-20 23:56N 44°24' E 013°01'3 8.1
2018-Jun-20 23:31N 44°22' E 013°05'4 8.1
2018-Jun-20 22:59N 44°19' E 013°10'  
2018-Jun-16 00:28N 37°12' E 004°54'510.1
2018-Jun-16 00:00N 37°11' E 004°48'1210.1
2018-Jun-15 22:47N 37°11' E 004°33'4 9.9
2018-Jun-15 22:22N 37°11' E 004°28'24 9.6
2018-Jun-15 19:55N 37°10' E 003°58'27 9.4
2018-Jun-15 17:04N 37°05' E 003°25'1 9.0
2018-Jun-15 17:00N 37°05' E 003°24'4 8.9
2018-Jun-15 16:30N 37°04' E 003°18'4 9.0
2018-Jun-15 16:00N 37°04' E 003°13'5 9.1
2018-Jun-15 15:30N 37°03' E 003°07'5 9.1
2018-Jun-15 15:00N 37°03' E 003°02'4 9.2
2018-Jun-15 14:30N 37°02' E 002°56'5 9.3
2018-Jun-15 14:00N 37°01' E 002°50'5 9.5
2018-Jun-15 13:31N 37°00' E 002°44'5 9.5
2018-Jun-15 13:00N 36°59' E 002°38'5 9.9
2018-Jun-15 12:30N 36°59' E 002°32'610.6
2018-Jun-15 11:58N 36°58' E 002°25'510.8
2018-Jun-15 11:30N 36°57' E 002°19'510.9
2018-Jun-15 11:01N 36°56' E 002°12'510.7
2018-Jun-15 10:30N 36°55' E 002°06'510.5
2018-Jun-15 10:00N 36°55' E 001°59'510.7
2018-Jun-15 09:31N 36°54' E 001°53'3110.5
2018-Jun-15 06:32N 36°49' E 001°14'110.3
2018-Jun-15 06:29N 36°49' E 001°14'510.4
2018-Jun-15 06:00N 36°48' E 001°08'510.3
2018-Jun-15 05:29N 36°47' E 001°01'1610.2
2018-Jun-15 03:53N 36°44' E 000°41'20 9.9
2018-Jun-15 01:52N 36°41' E 000°16'1110.0
2018-Jun-15 00:47N 36°40' E 000°03'310.0
2018-Jun-15 00:28N 36°39' W 000°01'5 9.8
2018-Jun-14 23:59N 36°38' W 000°07'9 9.5
2018-Jun-14 23:04N 36°36' W 000°17'1 9.6
2018-Jun-14 22:59N 36°36' W 000°18'5 9.6
2018-Jun-14 22:30N 36°35' W 000°24'2910.0
2018-Jun-14 19:36N 36°31' W 000°60'110.2
2018-Jun-14 19:30N 36°31' W 001°01'17910.5
2018-Jun-14 02:32N 36°05' W 004°40'311.4
2018-Jun-14 02:19N 36°04' W 004°44'411.9
2018-Jun-14 01:57N 36°03' W 004°49'611.9
2018-Jun-14 01:29N 36°03' W 004°56'1212.9
2018-Jun-14 00:31N 36°01' W 005°11'113.4
2018-Jun-14 00:28N 36°01' W 005°12'613.0
2018-Jun-14 00:00N 35°60' W 005°19'612.2
2018-Jun-13 23:31N 35°58' W 005°26'910.3
2018-Jun-13 22:36N 35°55' W 005°37'1 9.2
2018-Jun-13 22:28N 35°55' W 005°39'6 8.0
2018-Jun-13 21:39N 35°55' W 005°47'4 8.5
2018-Jun-13 21:09N 35°55' W 005°52'1 8.7
2018-Jun-13 21:00N 35°55' W 005°54'202 8.3
2018-Jun-12 20:29N 37°38' W 009°31'5 9.6
2018-Jun-12 20:00N 37°43' W 009°30'5 9.8
2018-Jun-12 19:30N 37°47' W 009°30'5 9.8
2018-Jun-12 19:01N 37°52' W 009°29'5 9.9
2018-Jun-12 18:31N 37°57' W 009°28'5 9.7
2018-Jun-12 18:00N 38°02' W 009°27'510.0
2018-Jun-12 17:30N 38°07' W 009°26'510.0
2018-Jun-12 17:01N 38°12' W 009°26'5 9.9
2018-Jun-12 16:31N 38°17' W 009°25'510.0
2018-Jun-12 16:01N 38°22' W 009°25'510.0
2018-Jun-12 15:31N 38°27' W 009°24'5 9.8
2018-Jun-12 15:01N 38°32' W 009°23'5 9.8
2018-Jun-12 14:30N 38°37' W 009°22'5 9.1
2018-Jun-12 14:01N 38°40' W 009°19'4 8.1
2018-Jun-12 13:30N 38°41' W 009°14'4 7.9
2018-Jun-12 13:01N 38°42' W 009°09'3 5.1
2018-Jun-12 12:24N 38°44' W 009°06'0 0.0
2018-Jun-12 12:00N 38°44' W 009°06'0 0.0
2018-Jun-12 11:30N 38°44' W 009°06'0 0.0
2018-Jun-12 11:00N 38°44' W 009°06'0 0.0
2018-Jun-12 10:30N 38°44' W 009°06'0 0.0
2018-Jun-12 09:57N 38°44' W 009°06'0 0.0
2018-Jun-12 09:30N 38°44' W 009°06'0 0.0
2018-Jun-12 09:00N 38°44' W 009°06'0 0.0
2018-Jun-12 08:30N 38°44' W 009°06'0 0.0
2018-Jun-12 08:00N 38°44' W 009°06'0 0.0
2018-Jun-12 07:30N 38°44' W 009°06'0 0.0
2018-Jun-12 07:00N 38°44' W 009°06'0 0.0
2018-Jun-12 06:30N 38°44' W 009°06'0 0.0
2018-Jun-12 05:57N 38°44' W 009°06'0 0.0
2018-Jun-12 05:30N 38°44' W 009°06'0 0.0
2018-Jun-12 05:00N 38°44' W 009°06'0 0.0
2018-Jun-12 04:30N 38°44' W 009°06'0 0.0
2018-Jun-12 04:00N 38°44' W 009°06'0 0.0
2018-Jun-12 03:30N 38°44' W 009°06'0 0.0
2018-Jun-12 03:00N 38°44' W 009°06'0 0.0
2018-Jun-12 02:30N 38°44' W 009°06'0 0.0
2018-Jun-12 02:00N 38°44' W 009°06'0 0.0
2018-Jun-12 01:27N 38°44' W 009°06'0 0.0
2018-Jun-12 01:00N 38°44' W 009°06'0 0.0
2018-Jun-12 00:30N 38°44' W 009°06'0 0.0
2018-Jun-12 00:00N 38°44' W 009°06'0 0.0
2018-Jun-11 23:30N 38°44' W 009°06'0 0.0
2018-Jun-11 23:00N 38°44' W 009°06'0 0.0
2018-Jun-11 22:30N 38°44' W 009°06'0 0.0
2018-Jun-11 22:00N 38°44' W 009°06'0 0.0
2018-Jun-11 21:30N 38°44' W 009°06'0 0.0
2018-Jun-11 21:00N 38°44' W 009°06'0 0.0
2018-Jun-11 20:30N 38°44' W 009°06'0 0.0
2018-Jun-11 19:57N 38°44' W 009°06'0 0.0
2018-Jun-11 19:30N 38°44' W 009°06'0 0.0
2018-Jun-11 19:00N 38°44' W 009°06'0 0.0
2018-Jun-11 18:30N 38°44' W 009°06'0 0.0
2018-Jun-11 17:57N 38°44' W 009°06'0 0.0
2018-Jun-11 17:30N 38°44' W 009°06'0 0.0
2018-Jun-11 17:00N 38°44' W 009°06'0 0.0
2018-Jun-11 16:30N 38°44' W 009°06'  
Track history (hours):
 
Tides and Currents Weather Stations Pressure Air Temp Water Temp Dewpoint Dewpoint Depression Visibility Wind Speed Wind Dir Waves Ship Positions

Puffy

Last reported at 2018-Jun-21 16:06 UTC. Time now 2018-Jun-22 01:59 UTC.
Position N 44°28' E 012°15'.

Length 140 m; draft 7.8 m.

Type: Cargo ship. MMSI: 249801000.

Date/timePositionNaut miles runAvg speedWind from/ knotsBaromVisibWave heightAir tempDewpointWater temp
2018-Jun-21 16:06N 44°28' E 012°15'0 0.0
2018-Jun-21 16:00N 44°28' E 012°15'0 0.0
2018-Jun-21 15:30N 44°28' E 012°15'0 0.0
2018-Jun-21 14:24N 44°28' E 012°15'0 0.0
2018-Jun-21 12:48N 44°28' E 012°15'0 0.0
2018-Jun-21 05:39N 44°28' E 012°15'9 4.4
2018-Jun-21 03:31N 44°30' E 012°28'0 1.1
2018-Jun-21 03:17N 44°30' E 012°29'7 6.5
2018-Jun-21 02:12N 44°30' E 012°38'4 8.1
2018-Jun-21 01:43N 44°30' E 012°44'2 7.9
2018-Jun-21 01:29N 44°30' E 012°47'5 7.6
2018-Jun-21 00:48N 44°28' E 012°53'3 8.3
2018-Jun-21 00:23N 44°26' E 012°57'4 8.2
2018-Jun-20 23:56N 44°24' E 013°01'3 8.1
2018-Jun-20 23:31N 44°22' E 013°05'4 8.1
2018-Jun-20 22:59N 44°19' E 013°10'  
2018-Jun-16 00:28N 37°12' E 004°54'510.1
2018-Jun-16 00:00N 37°11' E 004°48'1210.1
2018-Jun-15 22:47N 37°11' E 004°33'4 9.9
2018-Jun-15 22:22N 37°11' E 004°28'24 9.6
2018-Jun-15 19:55N 37°10' E 003°58'27 9.4
2018-Jun-15 17:04N 37°05' E 003°25'1 9.0
2018-Jun-15 17:00N 37°05' E 003°24'4 8.9
2018-Jun-15 16:30N 37°04' E 003°18'4 9.0
2018-Jun-15 16:00N 37°04' E 003°13'5 9.1
2018-Jun-15 15:30N 37°03' E 003°07'5 9.1
2018-Jun-15 15:00N 37°03' E 003°02'4 9.2
2018-Jun-15 14:30N 37°02' E 002°56'5 9.3
2018-Jun-15 14:00N 37°01' E 002°50'5 9.5
2018-Jun-15 13:31N 37°00' E 002°44'5 9.5
2018-Jun-15 13:00N 36°59' E 002°38'5 9.9
2018-Jun-15 12:30N 36°59' E 002°32'610.6
2018-Jun-15 11:58N 36°58' E 002°25'510.8
2018-Jun-15 11:30N 36°57' E 002°19'510.9
2018-Jun-15 11:01N 36°56' E 002°12'510.7
2018-Jun-15 10:30N 36°55' E 002°06'510.5
2018-Jun-15 10:00N 36°55' E 001°59'510.7
2018-Jun-15 09:31N 36°54' E 001°53'3110.5
2018-Jun-15 06:32N 36°49' E 001°14'110.3
2018-Jun-15 06:29N 36°49' E 001°14'510.4
2018-Jun-15 06:00N 36°48' E 001°08'510.3
2018-Jun-15 05:29N 36°47' E 001°01'1610.2
2018-Jun-15 03:53N 36°44' E 000°41'20 9.9
2018-Jun-15 01:52N 36°41' E 000°16'1110.0
2018-Jun-15 00:47N 36°40' E 000°03'310.0
2018-Jun-15 00:28N 36°39' W 000°01'5 9.8
2018-Jun-14 23:59N 36°38' W 000°07'9 9.5
2018-Jun-14 23:04N 36°36' W 000°17'1 9.6
2018-Jun-14 22:59N 36°36' W 000°18'5 9.6
2018-Jun-14 22:30N 36°35' W 000°24'2910.0
2018-Jun-14 19:36N 36°31' W 000°60'110.2
2018-Jun-14 19:30N 36°31' W 001°01'17910.5
2018-Jun-14 02:32N 36°05' W 004°40'311.4
2018-Jun-14 02:19N 36°04' W 004°44'411.9
2018-Jun-14 01:57N 36°03' W 004°49'611.9
2018-Jun-14 01:29N 36°03' W 004°56'1212.9
2018-Jun-14 00:31N 36°01' W 005°11'113.4
2018-Jun-14 00:28N 36°01' W 005°12'613.0
2018-Jun-14 00:00N 35°60' W 005°19'612.2
2018-Jun-13 23:31N 35°58' W 005°26'910.3
2018-Jun-13 22:36N 35°55' W 005°37'1 9.2
2018-Jun-13 22:28N 35°55' W 005°39'6 8.0
2018-Jun-13 21:39N 35°55' W 005°47'4 8.5
2018-Jun-13 21:09N 35°55' W 005°52'1 8.7
2018-Jun-13 21:00N 35°55' W 005°54'202 8.3
2018-Jun-12 20:29N 37°38' W 009°31'5 9.6
2018-Jun-12 20:00N 37°43' W 009°30'5 9.8
2018-Jun-12 19:30N 37°47' W 009°30'5 9.8
2018-Jun-12 19:01N 37°52' W 009°29'5 9.9
2018-Jun-12 18:31N 37°57' W 009°28'5 9.7
2018-Jun-12 18:00N 38°02' W 009°27'510.0
2018-Jun-12 17:30N 38°07' W 009°26'510.0
2018-Jun-12 17:01N 38°12' W 009°26'5 9.9
2018-Jun-12 16:31N 38°17' W 009°25'510.0
2018-Jun-12 16:01N 38°22' W 009°25'510.0
2018-Jun-12 15:31N 38°27' W 009°24'5 9.8
2018-Jun-12 15:01N 38°32' W 009°23'5 9.8
2018-Jun-12 14:30N 38°37' W 009°22'5 9.1
2018-Jun-12 14:01N 38°40' W 009°19'4 8.1
2018-Jun-12 13:30N 38°41' W 009°14'4 7.9
2018-Jun-12 13:01N 38°42' W 009°09'3 5.1
2018-Jun-12 12:24N 38°44' W 009°06'0 0.0
2018-Jun-12 12:00N 38°44' W 009°06'0 0.0
2018-Jun-12 11:30N 38°44' W 009°06'0 0.0
2018-Jun-12 11:00N 38°44' W 009°06'0 0.0
2018-Jun-12 10:30N 38°44' W 009°06'0 0.0
2018-Jun-12 09:57N 38°44' W 009°06'0 0.0
2018-Jun-12 09:30N 38°44' W 009°06'0 0.0
2018-Jun-12 09:00N 38°44' W 009°06'0 0.0
2018-Jun-12 08:30N 38°44' W 009°06'0 0.0
2018-Jun-12 08:00N 38°44' W 009°06'0 0.0
2018-Jun-12 07:30N 38°44' W 009°06'0 0.0
2018-Jun-12 07:00N 38°44' W 009°06'0 0.0
2018-Jun-12 06:30N 38°44' W 009°06'0 0.0
2018-Jun-12 05:57N 38°44' W 009°06'0 0.0
2018-Jun-12 05:30N 38°44' W 009°06'0 0.0
2018-Jun-12 05:00N 38°44' W 009°06'0 0.0
2018-Jun-12 04:30N 38°44' W 009°06'0 0.0
2018-Jun-12 04:00N 38°44' W 009°06'0 0.0
2018-Jun-12 03:30N 38°44' W 009°06'0 0.0
2018-Jun-12 03:00N 38°44' W 009°06'0 0.0
2018-Jun-12 02:30N 38°44' W 009°06'0 0.0
2018-Jun-12 02:00N 38°44' W 009°06'0 0.0
2018-Jun-12 01:27N 38°44' W 009°06'0 0.0
2018-Jun-12 01:00N 38°44' W 009°06'0 0.0
2018-Jun-12 00:30N 38°44' W 009°06'0 0.0
2018-Jun-12 00:00N 38°44' W 009°06'0 0.0
2018-Jun-11 23:30N 38°44' W 009°06'0 0.0
2018-Jun-11 23:00N 38°44' W 009°06'0 0.0
2018-Jun-11 22:30N 38°44' W 009°06'0 0.0
2018-Jun-11 22:00N 38°44' W 009°06'0 0.0
2018-Jun-11 21:30N 38°44' W 009°06'0 0.0
2018-Jun-11 21:00N 38°44' W 009°06'0 0.0
2018-Jun-11 20:30N 38°44' W 009°06'0 0.0
2018-Jun-11 19:57N 38°44' W 009°06'0 0.0
2018-Jun-11 19:30N 38°44' W 009°06'0 0.0
2018-Jun-11 19:00N 38°44' W 009°06'0 0.0
2018-Jun-11 18:30N 38°44' W 009°06'0 0.0
2018-Jun-11 17:57N 38°44' W 009°06'0 0.0
2018-Jun-11 17:30N 38°44' W 009°06'0 0.0
2018-Jun-11 17:00N 38°44' W 009°06'0 0.0
2018-Jun-11 16:30N 38°44' W 009°06'  

Dump ship's entire track history